sensor_id;sensor_type;location;lat;lon;timestamp;P1;durP1;ratioP1;P2;durP2;ratioP2
52614;SDS011;38508;53.158;6.614;2023-03-01T00:01:28;24.10;;;12.38;;
52614;SDS011;38508;53.158;6.614;2023-03-01T00:03:55;23.15;;;11.70;;
52614;SDS011;38508;53.158;6.614;2023-03-01T00:06:21;25.67;;;11.95;;
52614;SDS011;38508;53.158;6.614;2023-03-01T00:08:47;24.85;;;12.50;;
52614;SDS011;38508;53.158;6.614;2023-03-01T00:11:15;21.50;;;12.18;;
52614;SDS011;38508;53.158;6.614;2023-03-01T00:13:43;21.35;;;11.95;;
52614;SDS011;38508;53.158;6.614;2023-03-01T00:16:11;24.73;;;11.70;;
52614;SDS011;38508;53.158;6.614;2023-03-01T00:18:42;22.90;;;12.38;;
52614;SDS011;38508;53.158;6.614;2023-03-01T00:21:07;24.00;;;12.38;;
52614;SDS011;38508;53.158;6.614;2023-03-01T00:23:33;21.73;;;11.23;;
52614;SDS011;38508;53.158;6.614;2023-03-01T00:26:00;23.90;;;12.23;;
52614;SDS011;38508;53.158;6.614;2023-03-01T00:28:26;20.08;;;10.05;;
52614;SDS011;38508;53.158;6.614;2023-03-01T00:30:52;18.38;;;10.13;;
52614;SDS011;38508;53.158;6.614;2023-03-01T00:33:17;18.45;;;9.90;;
52614;SDS011;38508;53.158;6.614;2023-03-01T00:35:43;22.48;;;11.60;;
52614;SDS011;38508;53.158;6.614;2023-03-01T00:38:09;20.02;;;11.35;;
52614;SDS011;38508;53.158;6.614;2023-03-01T00:40:35;20.95;;;10.65;;
52614;SDS011;38508;53.158;6.614;2023-03-01T00:43:02;20.00;;;11.23;;
52614;SDS011;38508;53.158;6.614;2023-03-01T00:45:28;22.50;;;11.02;;
52614;SDS011;38508;53.158;6.614;2023-03-01T00:47:56;18.55;;;9.95;;
52614;SDS011;38508;53.158;6.614;2023-03-01T00:50:22;20.67;;;10.07;;
52614;SDS011;38508;53.158;6.614;2023-03-01T00:52:52;21.60;;;10.93;;
52614;SDS011;38508;53.158;6.614;2023-03-01T00:55:21;20.05;;;9.82;;
52614;SDS011;38508;53.158;6.614;2023-03-01T00:57:47;21.05;;;10.10;;
52614;SDS011;38508;53.158;6.614;2023-03-01T01:00:13;20.02;;;9.95;;
52614;SDS011;38508;53.158;6.614;2023-03-01T01:02:39;21.58;;;9.45;;
52614;SDS011;38508;53.158;6.614;2023-03-01T01:05:05;19.00;;;9.57;;
52614;SDS011;38508;53.158;6.614;2023-03-01T01:07:31;17.92;;;9.43;;
52614;SDS011;38508;53.158;6.614;2023-03-01T01:09:57;20.00;;;9.13;;
52614;SDS011;38508;53.158;6.614;2023-03-01T01:12:23;19.27;;;8.80;;
52614;SDS011;38508;53.158;6.614;2023-03-01T01:14:49;15.40;;;8.98;;
52614;SDS011;38508;53.158;6.614;2023-03-01T01:17:14;19.08;;;9.40;;
52614;SDS011;38508;53.158;6.614;2023-03-01T01:19:40;22.75;;;10.20;;
52614;SDS011;38508;53.158;6.614;2023-03-01T01:22:06;15.85;;;8.73;;
52614;SDS011;38508;53.158;6.614;2023-03-01T01:24:31;18.73;;;9.10;;
52614;SDS011;38508;53.158;6.614;2023-03-01T01:26:57;17.13;;;9.23;;
52614;SDS011;38508;53.158;6.614;2023-03-01T01:29:23;14.88;;;8.48;;
52614;SDS011;38508;53.158;6.614;2023-03-01T01:31:48;15.48;;;9.07;;
52614;SDS011;38508;53.158;6.614;2023-03-01T01:34:15;15.90;;;8.80;;
52614;SDS011;38508;53.158;6.614;2023-03-01T01:36:43;22.20;;;9.88;;
52614;SDS011;38508;53.158;6.614;2023-03-01T01:39:09;17.17;;;9.75;;
52614;SDS011;38508;53.158;6.614;2023-03-01T01:41:39;18.10;;;9.55;;
52614;SDS011;38508;53.158;6.614;2023-03-01T01:46:39;19.63;;;9.80;;
52614;SDS011;38508;53.158;6.614;2023-03-01T01:51:40;16.40;;;8.85;;
52614;SDS011;38508;53.158;6.614;2023-03-01T01:54:14;12.05;;;7.40;;
52614;SDS011;38508;53.158;6.614;2023-03-01T01:56:46;14.98;;;8.63;;
52614;SDS011;38508;53.158;6.614;2023-03-01T01:59:18;14.43;;;8.13;;
52614;SDS011;38508;53.158;6.614;2023-03-01T02:01:44;15.48;;;8.77;;
52614;SDS011;38508;53.158;6.614;2023-03-01T02:04:09;25.70;;;10.65;;
52614;SDS011;38508;53.158;6.614;2023-03-01T02:06:37;21.00;;;11.02;;
52614;SDS011;38508;53.158;6.614;2023-03-01T02:09:11;21.80;;;11.00;;
52614;SDS011;38508;53.158;6.614;2023-03-01T02:11:40;22.73;;;11.70;;
52614;SDS011;38508;53.158;6.614;2023-03-01T02:14:06;23.88;;;12.40;;
52614;SDS011;38508;53.158;6.614;2023-03-01T02:16:31;18.02;;;8.95;;
52614;SDS011;38508;53.158;6.614;2023-03-01T02:18:58;23.98;;;11.48;;
52614;SDS011;38508;53.158;6.614;2023-03-01T02:26:57;17.48;;;8.90;;
52614;SDS011;38508;53.158;6.614;2023-03-01T02:29:23;18.63;;;10.02;;
52614;SDS011;38508;53.158;6.614;2023-03-01T02:31:50;14.48;;;8.05;;
52614;SDS011;38508;53.158;6.614;2023-03-01T02:34:20;21.25;;;9.90;;
52614;SDS011;38508;53.158;6.614;2023-03-01T02:37:12;17.33;;;8.90;;
52614;SDS011;38508;53.158;6.614;2023-03-01T02:39:40;15.18;;;8.10;;
52614;SDS011;38508;53.158;6.614;2023-03-01T02:42:12;15.63;;;8.85;;
52614;SDS011;38508;53.158;6.614;2023-03-01T02:44:40;13.63;;;7.93;;
52614;SDS011;38508;53.158;6.614;2023-03-01T02:47:06;12.07;;;7.18;;
52614;SDS011;38508;53.158;6.614;2023-03-01T02:49:33;10.57;;;7.40;;
52614;SDS011;38508;53.158;6.614;2023-03-01T02:54:47;11.73;;;7.43;;
52614;SDS011;38508;53.158;6.614;2023-03-01T02:57:14;15.02;;;6.78;;
52614;SDS011;38508;53.158;6.614;2023-03-01T02:59:40;14.23;;;7.28;;
52614;SDS011;38508;53.158;6.614;2023-03-01T03:02:20;14.52;;;7.80;;
52614;SDS011;38508;53.158;6.614;2023-03-01T03:05:10;14.00;;;8.25;;
52614;SDS011;38508;53.158;6.614;2023-03-01T03:07:42;17.00;;;8.05;;
52614;SDS011;38508;53.158;6.614;2023-03-01T03:10:14;12.23;;;7.55;;
52614;SDS011;38508;53.158;6.614;2023-03-01T03:12:44;21.15;;;8.23;;
52614;SDS011;38508;53.158;6.614;2023-03-01T03:15:18;12.63;;;7.25;;
52614;SDS011;38508;53.158;6.614;2023-03-01T03:17:45;32.35;;;8.52;;
52614;SDS011;38508;53.158;6.614;2023-03-01T03:20:13;15.88;;;8.80;;
52614;SDS011;38508;53.158;6.614;2023-03-01T03:22:44;17.17;;;8.52;;
52614;SDS011;38508;53.158;6.614;2023-03-01T03:25:16;20.15;;;9.20;;
52614;SDS011;38508;53.158;6.614;2023-03-01T03:27:43;28.38;;;9.88;;
52614;SDS011;38508;53.158;6.614;2023-03-01T03:30:11;20.00;;;7.88;;
52614;SDS011;38508;53.158;6.614;2023-03-01T03:32:39;13.02;;;7.88;;
52614;SDS011;38508;53.158;6.614;2023-03-01T03:35:06;16.33;;;9.35;;
52614;SDS011;38508;53.158;6.614;2023-03-01T03:37:37;18.23;;;8.85;;
52614;SDS011;38508;53.158;6.614;2023-03-01T03:40:24;11.90;;;7.57;;
52614;SDS011;38508;53.158;6.614;2023-03-01T03:42:50;10.10;;;7.40;;
52614;SDS011;38508;53.158;6.614;2023-03-01T03:45:16;12.73;;;7.78;;
52614;SDS011;38508;53.158;6.614;2023-03-01T03:47:42;12.27;;;7.88;;
52614;SDS011;38508;53.158;6.614;2023-03-01T03:50:12;13.10;;;8.20;;
52614;SDS011;38508;53.158;6.614;2023-03-01T03:52:39;11.88;;;7.53;;
52614;SDS011;38508;53.158;6.614;2023-03-01T03:55:06;14.13;;;8.35;;
52614;SDS011;38508;53.158;6.614;2023-03-01T03:57:40;13.40;;;8.10;;
52614;SDS011;38508;53.158;6.614;2023-03-01T04:00:07;13.63;;;8.30;;
52614;SDS011;38508;53.158;6.614;2023-03-01T04:02:38;16.13;;;8.70;;
52614;SDS011;38508;53.158;6.614;2023-03-01T04:05:08;19.38;;;8.23;;
52614;SDS011;38508;53.158;6.614;2023-03-01T04:07:36;18.13;;;8.32;;
52614;SDS011;38508;53.158;6.614;2023-03-01T04:10:06;23.17;;;8.77;;
52614;SDS011;38508;53.158;6.614;2023-03-01T04:12:34;15.38;;;7.97;;
52614;SDS011;38508;53.158;6.614;2023-03-01T04:15:01;22.15;;;8.23;;
52614;SDS011;38508;53.158;6.614;2023-03-01T04:17:40;15.52;;;8.63;;
52614;SDS011;38508;53.158;6.614;2023-03-01T04:20:08;24.00;;;9.43;;
52614;SDS011;38508;53.158;6.614;2023-03-01T04:22:39;21.90;;;9.27;;
52614;SDS011;38508;53.158;6.614;2023-03-01T04:25:05;14.82;;;8.35;;
52614;SDS011;38508;53.158;6.614;2023-03-01T04:27:35;14.88;;;9.25;;
52614;SDS011;38508;53.158;6.614;2023-03-01T04:30:02;14.07;;;8.52;;
52614;SDS011;38508;53.158;6.614;2023-03-01T04:32:28;15.35;;;8.75;;
52614;SDS011;38508;53.158;6.614;2023-03-01T04:34:54;13.68;;;8.70;;
52614;SDS011;38508;53.158;6.614;2023-03-01T04:37:20;13.98;;;8.48;;
52614;SDS011;38508;53.158;6.614;2023-03-01T04:39:46;13.82;;;8.52;;
52614;SDS011;38508;53.158;6.614;2023-03-01T04:42:12;13.80;;;8.13;;
52614;SDS011;38508;53.158;6.614;2023-03-01T04:44:39;13.23;;;8.38;;
52614;SDS011;38508;53.158;6.614;2023-03-01T04:47:04;11.43;;;7.13;;
52614;SDS011;38508;53.158;6.614;2023-03-01T04:49:31;12.68;;;7.45;;
52614;SDS011;38508;53.158;6.614;2023-03-01T04:51:57;13.65;;;7.43;;
52614;SDS011;38508;53.158;6.614;2023-03-01T04:54:32;14.45;;;7.95;;
52614;SDS011;38508;53.158;6.614;2023-03-01T04:56:58;13.85;;;8.40;;
52614;SDS011;38508;53.158;6.614;2023-03-01T04:59:25;16.92;;;9.07;;
52614;SDS011;38508;53.158;6.614;2023-03-01T05:01:51;15.50;;;9.60;;
52614;SDS011;38508;53.158;6.614;2023-03-01T05:04:17;15.05;;;8.70;;
52614;SDS011;38508;53.158;6.614;2023-03-01T05:06:43;13.95;;;8.63;;
52614;SDS011;38508;53.158;6.614;2023-03-01T05:09:09;17.80;;;8.95;;
52614;SDS011;38508;53.158;6.614;2023-03-01T05:11:36;16.50;;;9.65;;
52614;SDS011;38508;53.158;6.614;2023-03-01T05:14:03;16.02;;;8.93;;
52614;SDS011;38508;53.158;6.614;2023-03-01T05:16:33;16.25;;;9.38;;
52614;SDS011;38508;53.158;6.614;2023-03-01T05:18:59;16.40;;;9.75;;
52614;SDS011;38508;53.158;6.614;2023-03-01T05:21:25;16.85;;;9.88;;
52614;SDS011;38508;53.158;6.614;2023-03-01T05:23:51;16.27;;;9.35;;
52614;SDS011;38508;53.158;6.614;2023-03-01T05:26:17;14.95;;;9.18;;
52614;SDS011;38508;53.158;6.614;2023-03-01T05:28:46;16.92;;;9.02;;
52614;SDS011;38508;53.158;6.614;2023-03-01T05:31:12;17.75;;;9.60;;
52614;SDS011;38508;53.158;6.614;2023-03-01T05:33:39;19.95;;;10.80;;
52614;SDS011;38508;53.158;6.614;2023-03-01T05:36:06;22.25;;;11.45;;
52614;SDS011;38508;53.158;6.614;2023-03-01T05:38:33;20.65;;;10.77;;
52614;SDS011;38508;53.158;6.614;2023-03-01T05:40:59;21.88;;;11.27;;
52614;SDS011;38508;53.158;6.614;2023-03-01T05:43:25;21.30;;;11.15;;
52614;SDS011;38508;53.158;6.614;2023-03-01T05:45:51;18.17;;;9.90;;
52614;SDS011;38508;53.158;6.614;2023-03-01T05:48:17;20.55;;;11.18;;
52614;SDS011;38508;53.158;6.614;2023-03-01T05:50:44;22.02;;;11.10;;
52614;SDS011;38508;53.158;6.614;2023-03-01T05:53:15;23.90;;;11.27;;
52614;SDS011;38508;53.158;6.614;2023-03-01T05:55:44;29.15;;;12.23;;
52614;SDS011;38508;53.158;6.614;2023-03-01T05:58:16;21.88;;;11.05;;
52614;SDS011;38508;53.158;6.614;2023-03-01T06:00:44;19.42;;;10.30;;
52614;SDS011;38508;53.158;6.614;2023-03-01T06:03:13;19.27;;;10.27;;
52614;SDS011;38508;53.158;6.614;2023-03-01T06:05:40;17.42;;;9.73;;
52614;SDS011;38508;53.158;6.614;2023-03-01T06:08:06;20.13;;;9.93;;
52614;SDS011;38508;53.158;6.614;2023-03-01T06:10:33;19.83;;;10.73;;
52614;SDS011;38508;53.158;6.614;2023-03-01T06:12:59;19.08;;;10.38;;
52614;SDS011;38508;53.158;6.614;2023-03-01T06:15:25;20.40;;;10.27;;
52614;SDS011;38508;53.158;6.614;2023-03-01T06:17:51;18.15;;;9.23;;
52614;SDS011;38508;53.158;6.614;2023-03-01T06:20:21;18.42;;;9.52;;
52614;SDS011;38508;53.158;6.614;2023-03-01T06:22:49;16.63;;;9.43;;
52614;SDS011;38508;53.158;6.614;2023-03-01T06:25:20;18.45;;;10.02;;
52614;SDS011;38508;53.158;6.614;2023-03-01T06:27:47;16.65;;;9.82;;
52614;SDS011;38508;53.158;6.614;2023-03-01T06:30:14;16.48;;;8.80;;
52614;SDS011;38508;53.158;6.614;2023-03-01T06:32:42;17.88;;;9.52;;
52614;SDS011;38508;53.158;6.614;2023-03-01T06:35:08;19.35;;;10.43;;
52614;SDS011;38508;53.158;6.614;2023-03-01T06:37:39;18.95;;;9.77;;
52614;SDS011;38508;53.158;6.614;2023-03-01T06:40:06;16.73;;;9.18;;
52614;SDS011;38508;53.158;6.614;2023-03-01T06:42:35;20.10;;;10.48;;
52614;SDS011;38508;53.158;6.614;2023-03-01T06:45:02;19.17;;;9.93;;
52614;SDS011;38508;53.158;6.614;2023-03-01T06:47:28;19.25;;;9.70;;
52614;SDS011;38508;53.158;6.614;2023-03-01T06:49:54;19.48;;;10.13;;
52614;SDS011;38508;53.158;6.614;2023-03-01T06:52:20;18.25;;;9.35;;
52614;SDS011;38508;53.158;6.614;2023-03-01T06:54:45;17.88;;;9.68;;
52614;SDS011;38508;53.158;6.614;2023-03-01T06:57:11;17.88;;;9.73;;
52614;SDS011;38508;53.158;6.614;2023-03-01T06:59:36;18.10;;;9.77;;
52614;SDS011;38508;53.158;6.614;2023-03-01T07:02:02;17.75;;;9.68;;
52614;SDS011;38508;53.158;6.614;2023-03-01T07:04:28;17.98;;;9.10;;
52614;SDS011;38508;53.158;6.614;2023-03-01T07:06:55;21.48;;;10.27;;
52614;SDS011;38508;53.158;6.614;2023-03-01T07:09:22;20.92;;;9.38;;
52614;SDS011;38508;53.158;6.614;2023-03-01T07:11:48;18.33;;;10.07;;
52614;SDS011;38508;53.158;6.614;2023-03-01T07:14:14;21.58;;;10.93;;
52614;SDS011;38508;53.158;6.614;2023-03-01T07:16:40;22.63;;;11.10;;
52614;SDS011;38508;53.158;6.614;2023-03-01T07:19:06;21.83;;;10.32;;
52614;SDS011;38508;53.158;6.614;2023-03-01T07:21:31;23.05;;;10.85;;
52614;SDS011;38508;53.158;6.614;2023-03-01T07:23:57;19.20;;;10.45;;
52614;SDS011;38508;53.158;6.614;2023-03-01T07:26:23;20.40;;;10.07;;
52614;SDS011;38508;53.158;6.614;2023-03-01T07:28:48;22.20;;;11.20;;
52614;SDS011;38508;53.158;6.614;2023-03-01T07:31:14;21.55;;;10.00;;
52614;SDS011;38508;53.158;6.614;2023-03-01T07:33:40;20.98;;;10.07;;
52614;SDS011;38508;53.158;6.614;2023-03-01T07:36:06;20.63;;;9.98;;
52614;SDS011;38508;53.158;6.614;2023-03-01T07:38:32;18.90;;;10.75;;
52614;SDS011;38508;53.158;6.614;2023-03-01T07:40:59;19.63;;;10.02;;
52614;SDS011;38508;53.158;6.614;2023-03-01T07:43:27;18.83;;;10.20;;
52614;SDS011;38508;53.158;6.614;2023-03-01T07:45:53;20.83;;;10.40;;
52614;SDS011;38508;53.158;6.614;2023-03-01T07:48:19;21.52;;;10.63;;
52614;SDS011;38508;53.158;6.614;2023-03-01T07:50:44;17.40;;;10.30;;
52614;SDS011;38508;53.158;6.614;2023-03-01T07:53:10;22.60;;;11.75;;
52614;SDS011;38508;53.158;6.614;2023-03-01T07:55:36;21.20;;;10.95;;
52614;SDS011;38508;53.158;6.614;2023-03-01T07:58:02;21.55;;;12.02;;
52614;SDS011;38508;53.158;6.614;2023-03-01T08:00:28;22.35;;;11.43;;
52614;SDS011;38508;53.158;6.614;2023-03-01T08:02:53;24.08;;;12.32;;
52614;SDS011;38508;53.158;6.614;2023-03-01T08:05:19;24.42;;;12.65;;
52614;SDS011;38508;53.158;6.614;2023-03-01T08:07:47;25.27;;;13.02;;
52614;SDS011;38508;53.158;6.614;2023-03-01T08:10:13;25.63;;;13.32;;
52614;SDS011;38508;53.158;6.614;2023-03-01T08:12:38;26.35;;;13.50;;
52614;SDS011;38508;53.158;6.614;2023-03-01T08:15:04;24.98;;;12.88;;
52614;SDS011;38508;53.158;6.614;2023-03-01T08:17:30;26.85;;;14.63;;
52614;SDS011;38508;53.158;6.614;2023-03-01T08:19:56;29.27;;;14.27;;
52614;SDS011;38508;53.158;6.614;2023-03-01T08:22:22;28.95;;;15.10;;
52614;SDS011;38508;53.158;6.614;2023-03-01T08:24:47;29.05;;;15.40;;
52614;SDS011;38508;53.158;6.614;2023-03-01T08:27:14;28.40;;;15.00;;
52614;SDS011;38508;53.158;6.614;2023-03-01T08:29:41;28.63;;;15.85;;
52614;SDS011;38508;53.158;6.614;2023-03-01T08:32:06;31.95;;;16.85;;
52614;SDS011;38508;53.158;6.614;2023-03-01T08:34:32;31.67;;;16.92;;
52614;SDS011;38508;53.158;6.614;2023-03-01T08:37:00;34.10;;;16.60;;
52614;SDS011;38508;53.158;6.614;2023-03-01T08:39:26;37.75;;;18.17;;
52614;SDS011;38508;53.158;6.614;2023-03-01T08:41:52;37.35;;;19.35;;
52614;SDS011;38508;53.158;6.614;2023-03-01T08:44:18;45.25;;;21.40;;
52614;SDS011;38508;53.158;6.614;2023-03-01T08:46:45;43.17;;;20.73;;
52614;SDS011;38508;53.158;6.614;2023-03-01T08:49:19;49.42;;;22.45;;
52614;SDS011;38508;53.158;6.614;2023-03-01T08:51:45;43.40;;;20.63;;
52614;SDS011;38508;53.158;6.614;2023-03-01T08:54:16;42.15;;;20.05;;
52614;SDS011;38508;53.158;6.614;2023-03-01T08:56:44;40.20;;;20.02;;
52614;SDS011;38508;53.158;6.614;2023-03-01T08:59:10;43.55;;;20.17;;
52614;SDS011;38508;53.158;6.614;2023-03-01T09:01:37;41.33;;;21.17;;
52614;SDS011;38508;53.158;6.614;2023-03-01T09:04:03;40.78;;;20.33;;
52614;SDS011;38508;53.158;6.614;2023-03-01T09:06:32;45.88;;;22.38;;
52614;SDS011;38508;53.158;6.614;2023-03-01T09:08:59;42.25;;;21.75;;
52614;SDS011;38508;53.158;6.614;2023-03-01T09:11:25;41.92;;;21.30;;
52614;SDS011;38508;53.158;6.614;2023-03-01T09:13:51;47.38;;;24.50;;
52614;SDS011;38508;53.158;6.614;2023-03-01T09:16:17;48.03;;;23.40;;
52614;SDS011;38508;53.158;6.614;2023-03-01T09:18:44;60.30;;;26.05;;
52614;SDS011;38508;53.158;6.614;2023-03-01T09:21:14;52.00;;;24.05;;
52614;SDS011;38508;53.158;6.614;2023-03-01T09:23:42;48.47;;;23.50;;
52614;SDS011;38508;53.158;6.614;2023-03-01T09:26:10;52.88;;;23.92;;
52614;SDS011;38508;53.158;6.614;2023-03-01T09:28:38;49.95;;;23.02;;
52614;SDS011;38508;53.158;6.614;2023-03-01T09:31:05;50.63;;;23.40;;
52614;SDS011;38508;53.158;6.614;2023-03-01T09:33:32;49.83;;;25.15;;
52614;SDS011;38508;53.158;6.614;2023-03-01T09:36:04;52.08;;;25.27;;
52614;SDS011;38508;53.158;6.614;2023-03-01T09:38:32;48.28;;;25.00;;
52614;SDS011;38508;53.158;6.614;2023-03-01T09:40:58;47.08;;;23.40;;
52614;SDS011;38508;53.158;6.614;2023-03-01T09:46:10;45.70;;;24.02;;
52614;SDS011;38508;53.158;6.614;2023-03-01T09:48:43;42.33;;;22.25;;
52614;SDS011;38508;53.158;6.614;2023-03-01T09:51:15;43.90;;;21.98;;
52614;SDS011;38508;53.158;6.614;2023-03-01T09:54:01;47.05;;;22.30;;
52614;SDS011;38508;53.158;6.614;2023-03-01T10:01:56;38.88;;;19.77;;
52614;SDS011;38508;53.158;6.614;2023-03-01T10:09:39;36.67;;;19.10;;
52614;SDS011;38508;53.158;6.614;2023-03-01T10:12:11;33.97;;;17.85;;
52614;SDS011;38508;53.158;6.614;2023-03-01T10:17:14;28.58;;;16.42;;
52614;SDS011;38508;53.158;6.614;2023-03-01T10:19:50;26.88;;;14.38;;
52614;SDS011;38508;53.158;6.614;2023-03-01T10:22:17;27.80;;;16.08;;
52614;SDS011;38508;53.158;6.614;2023-03-01T10:24:50;27.70;;;15.82;;
52614;SDS011;38508;53.158;6.614;2023-03-01T10:27:22;28.40;;;16.38;;
52614;SDS011;38508;53.158;6.614;2023-03-01T10:30:02;25.08;;;15.00;;
52614;SDS011;38508;53.158;6.614;2023-03-01T10:32:45;28.23;;;15.25;;
52614;SDS011;38508;53.158;6.614;2023-03-01T10:35:24;25.25;;;14.25;;
52614;SDS011;38508;53.158;6.614;2023-03-01T10:40:30;26.52;;;13.80;;
52614;SDS011;38508;53.158;6.614;2023-03-01T10:42:57;23.60;;;13.73;;
52614;SDS011;38508;53.158;6.614;2023-03-01T10:50:38;30.38;;;16.40;;
52614;SDS011;38508;53.158;6.614;2023-03-01T10:53:08;29.50;;;17.23;;
52614;SDS011;38508;53.158;6.614;2023-03-01T10:55:46;28.40;;;16.65;;
52614;SDS011;38508;53.158;6.614;2023-03-01T11:00:46;26.90;;;15.05;;
52614;SDS011;38508;53.158;6.614;2023-03-01T11:11:13;29.45;;;17.10;;
52614;SDS011;38508;53.158;6.614;2023-03-01T11:13:53;26.50;;;16.52;;
52614;SDS011;38508;53.158;6.614;2023-03-01T11:16:25;29.60;;;17.55;;
52614;SDS011;38508;53.158;6.614;2023-03-01T11:18:57;25.95;;;15.82;;
52614;SDS011;38508;53.158;6.614;2023-03-01T11:21:24;26.05;;;14.55;;
52614;SDS011;38508;53.158;6.614;2023-03-01T11:23:53;24.45;;;14.55;;
52614;SDS011;38508;53.158;6.614;2023-03-01T11:26:19;22.73;;;13.52;;
52614;SDS011;38508;53.158;6.614;2023-03-01T11:28:48;22.10;;;14.32;;
52614;SDS011;38508;53.158;6.614;2023-03-01T11:31:16;23.02;;;14.35;;
52614;SDS011;38508;53.158;6.614;2023-03-01T11:39:23;22.60;;;13.88;;
52614;SDS011;38508;53.158;6.614;2023-03-01T11:42:13;22.83;;;14.30;;
52614;SDS011;38508;53.158;6.614;2023-03-01T11:44:52;23.42;;;14.38;;
52614;SDS011;38508;53.158;6.614;2023-03-01T12:01:18;18.33;;;11.65;;
52614;SDS011;38508;53.158;6.614;2023-03-01T12:12:25;18.95;;;10.95;;
52614;SDS011;38508;53.158;6.614;2023-03-01T12:34:33;18.60;;;11.35;;
52614;SDS011;38508;53.158;6.614;2023-03-01T12:40:13;16.42;;;9.95;;
52614;SDS011;38508;53.158;6.614;2023-03-01T12:50:57;17.30;;;11.10;;
52614;SDS011;38508;53.158;6.614;2023-03-01T12:53:34;15.75;;;10.55;;
52614;SDS011;38508;53.158;6.614;2023-03-01T12:56:22;16.52;;;11.27;;
52614;SDS011;38508;53.158;6.614;2023-03-01T13:02:01;16.50;;;10.43;;
52614;SDS011;38508;53.158;6.614;2023-03-01T13:07:44;16.58;;;10.68;;
52614;SDS011;38508;53.158;6.614;2023-03-01T13:10:21;15.23;;;10.40;;
52614;SDS011;38508;53.158;6.614;2023-03-01T13:12:52;16.10;;;11.32;;
52614;SDS011;38508;53.158;6.614;2023-03-01T13:17:56;17.63;;;11.85;;
52614;SDS011;38508;53.158;6.614;2023-03-01T13:33:47;17.05;;;11.45;;
52614;SDS011;38508;53.158;6.614;2023-03-01T13:38:57;17.17;;;10.27;;
52614;SDS011;38508;53.158;6.614;2023-03-01T13:49:19;19.52;;;11.43;;
52614;SDS011;38508;53.158;6.614;2023-03-01T13:51:49;19.98;;;11.93;;
52614;SDS011;38508;53.158;6.614;2023-03-01T13:54:19;20.75;;;11.75;;
52614;SDS011;38508;53.158;6.614;2023-03-01T13:56:55;17.02;;;11.93;;
52614;SDS011;38508;53.158;6.614;2023-03-01T13:59:23;17.95;;;12.00;;
52614;SDS011;38508;53.158;6.614;2023-03-01T14:01:52;14.88;;;10.73;;
52614;SDS011;38508;53.158;6.614;2023-03-01T14:07:09;18.98;;;12.30;;
52614;SDS011;38508;53.158;6.614;2023-03-01T14:09:43;21.10;;;13.13;;
52614;SDS011;38508;53.158;6.614;2023-03-01T14:12:15;19.83;;;12.73;;
52614;SDS011;38508;53.158;6.614;2023-03-01T14:17:48;20.92;;;13.10;;
52614;SDS011;38508;53.158;6.614;2023-03-01T14:20:27;24.05;;;14.38;;
52614;SDS011;38508;53.158;6.614;2023-03-01T14:23:01;22.08;;;12.45;;
52614;SDS011;38508;53.158;6.614;2023-03-01T14:25:34;21.40;;;13.20;;
52614;SDS011;38508;53.158;6.614;2023-03-01T14:31:01;22.35;;;13.85;;
52614;SDS011;38508;53.158;6.614;2023-03-01T14:33:31;23.75;;;13.30;;
52614;SDS011;38508;53.158;6.614;2023-03-01T14:36:00;25.08;;;14.13;;
52614;SDS011;38508;53.158;6.614;2023-03-01T14:38:41;23.38;;;14.98;;
52614;SDS011;38508;53.158;6.614;2023-03-01T14:41:12;24.00;;;14.77;;
52614;SDS011;38508;53.158;6.614;2023-03-01T14:44:19;24.98;;;13.98;;
52614;SDS011;38508;53.158;6.614;2023-03-01T14:46:41;24.40;;;14.27;;
52614;SDS011;38508;53.158;6.614;2023-03-01T14:49:13;23.30;;;13.95;;
52614;SDS011;38508;53.158;6.614;2023-03-01T14:52:07;27.77;;;15.43;;
52614;SDS011;38508;53.158;6.614;2023-03-01T14:54:44;25.35;;;14.13;;
52614;SDS011;38508;53.158;6.614;2023-03-01T14:57:17;27.35;;;14.65;;
52614;SDS011;38508;53.158;6.614;2023-03-01T14:59:46;22.85;;;13.63;;
52614;SDS011;38508;53.158;6.614;2023-03-01T15:02:15;27.33;;;14.98;;
52614;SDS011;38508;53.158;6.614;2023-03-01T15:04:48;22.77;;;13.68;;
52614;SDS011;38508;53.158;6.614;2023-03-01T15:07:17;21.50;;;13.23;;
52614;SDS011;38508;53.158;6.614;2023-03-01T15:09:44;26.27;;;14.85;;
52614;SDS011;38508;53.158;6.614;2023-03-01T15:15:08;24.65;;;14.55;;
52614;SDS011;38508;53.158;6.614;2023-03-01T15:18:15;23.15;;;14.15;;
52614;SDS011;38508;53.158;6.614;2023-03-01T15:20:41;23.63;;;13.80;;
52614;SDS011;38508;53.158;6.614;2023-03-01T15:23:16;23.13;;;14.30;;
52614;SDS011;38508;53.158;6.614;2023-03-01T15:25:51;23.05;;;14.00;;
52614;SDS011;38508;53.158;6.614;2023-03-01T15:28:23;22.15;;;14.40;;
52614;SDS011;38508;53.158;6.614;2023-03-01T15:30:54;26.25;;;14.38;;
52614;SDS011;38508;53.158;6.614;2023-03-01T15:35:55;24.77;;;14.52;;
52614;SDS011;38508;53.158;6.614;2023-03-01T15:40:54;27.77;;;15.55;;
52614;SDS011;38508;53.158;6.614;2023-03-01T15:46:17;27.25;;;15.10;;
52614;SDS011;38508;53.158;6.614;2023-03-01T15:48:50;25.58;;;14.07;;
52614;SDS011;38508;53.158;6.614;2023-03-01T15:51:19;22.88;;;14.63;;
52614;SDS011;38508;53.158;6.614;2023-03-01T15:53:49;25.30;;;13.68;;
52614;SDS011;38508;53.158;6.614;2023-03-01T15:56:17;22.55;;;14.32;;
52614;SDS011;38508;53.158;6.614;2023-03-01T15:58:44;21.42;;;15.05;;
52614;SDS011;38508;53.158;6.614;2023-03-01T16:01:13;19.05;;;12.95;;
52614;SDS011;38508;53.158;6.614;2023-03-01T16:03:41;22.35;;;13.25;;
52614;SDS011;38508;53.158;6.614;2023-03-01T16:06:10;27.70;;;15.40;;
52614;SDS011;38508;53.158;6.614;2023-03-01T16:08:37;21.17;;;14.40;;
52614;SDS011;38508;53.158;6.614;2023-03-01T16:11:09;21.77;;;13.65;;
52614;SDS011;38508;53.158;6.614;2023-03-01T16:13:40;21.13;;;14.55;;
52614;SDS011;38508;53.158;6.614;2023-03-01T16:16:06;19.30;;;13.23;;
52614;SDS011;38508;53.158;6.614;2023-03-01T16:18:37;21.00;;;13.45;;
52614;SDS011;38508;53.158;6.614;2023-03-01T16:21:03;18.73;;;13.38;;
52614;SDS011;38508;53.158;6.614;2023-03-01T16:23:30;20.30;;;12.88;;
52614;SDS011;38508;53.158;6.614;2023-03-01T16:25:59;22.25;;;13.68;;
52614;SDS011;38508;53.158;6.614;2023-03-01T16:28:25;22.38;;;13.90;;
52614;SDS011;38508;53.158;6.614;2023-03-01T16:30:51;20.50;;;12.98;;
52614;SDS011;38508;53.158;6.614;2023-03-01T16:33:17;19.65;;;12.73;;
52614;SDS011;38508;53.158;6.614;2023-03-01T16:35:43;17.70;;;13.00;;
52614;SDS011;38508;53.158;6.614;2023-03-01T16:38:09;17.30;;;12.40;;
52614;SDS011;38508;53.158;6.614;2023-03-01T16:40:35;21.75;;;13.75;;
52614;SDS011;38508;53.158;6.614;2023-03-01T16:43:01;23.83;;;14.40;;
52614;SDS011;38508;53.158;6.614;2023-03-01T16:45:27;18.08;;;12.60;;
52614;SDS011;38508;53.158;6.614;2023-03-01T16:47:58;22.98;;;14.35;;
52614;SDS011;38508;53.158;6.614;2023-03-01T16:50:24;22.00;;;12.80;;
52614;SDS011;38508;53.158;6.614;2023-03-01T16:52:50;20.02;;;13.20;;
52614;SDS011;38508;53.158;6.614;2023-03-01T16:55:16;22.65;;;12.95;;
52614;SDS011;38508;53.158;6.614;2023-03-01T16:57:42;21.33;;;12.63;;
52614;SDS011;38508;53.158;6.614;2023-03-01T17:00:08;20.05;;;12.50;;
52614;SDS011;38508;53.158;6.614;2023-03-01T17:02:36;20.90;;;13.20;;
52614;SDS011;38508;53.158;6.614;2023-03-01T17:05:02;21.33;;;12.82;;
52614;SDS011;38508;53.158;6.614;2023-03-01T17:07:32;23.38;;;13.38;;
52614;SDS011;38508;53.158;6.614;2023-03-01T17:09:59;22.38;;;13.57;;
52614;SDS011;38508;53.158;6.614;2023-03-01T17:12:25;21.00;;;13.00;;
52614;SDS011;38508;53.158;6.614;2023-03-01T17:14:52;23.52;;;14.07;;